Time;durP1;ratioP1;P1;durP2;ratioP2;P2;SDS_P1;SDS_P2;PMS_P1;PMS_P2;Temp;Humidity;BMP_temperature;BMP_pressure;BME280_temperature;BME280_humidity;BME280_pressure;Samples;Min_cycle;Max_cycle;Signal;HPM_P1;HPM_P2
2021/12/05 00:22:11;;;;;;;50.10;29.83;;;;;;;4.40;92.90;92154.31;5031364;28;20249;-83
2021/12/05 00:24:42;;;;;;;42.03;27.87;;;;;;;4.26;92.07;92122.22;5032630;28;20182;-83
2021/12/05 00:27:17;;;;;;;46.10;29.83;;;;;;;4.30;92.62;92132.78;5030634;28;20238;-83
2021/12/05 00:32:47;;;;;;;47.03;29.63;;;;;;;4.25;92.31;92118.06;5030650;28;20229;-83
2021/12/05 00:35:52;;;;;;;51.00;30.27;;;;;;;4.20;92.87;92115.44;5031501;28;20187;-83
2021/12/05 00:39:05;;;;;;;45.77;27.37;;;;;;;4.23;91.76;92091.72;5031097;28;20232;-83
2021/12/05 00:41:38;;;;;;;51.03;32.20;;;;;;;3.88;93.86;92108.81;5032314;28;20212;-81
2021/12/05 00:57:54;;;;;;;59.37;32.77;;;;;;;4.08;94.70;92119.25;5030053;28;20296;-84
2021/12/05 01:03:55;;;;;;;48.50;31.37;;;;;;;4.39;92.99;92116.56;5031061;28;20253;-84
2021/12/05 01:06:47;;;;;;;46.70;28.67;;;;;;;4.34;92.68;92116.53;5029457;28;20201;-84
2021/12/05 01:14:24;;;;;;;46.30;29.10;;;;;;;4.10;93.42;92075.88;5030733;28;20215;-87
2021/12/05 01:16:33;;;;;;;48.50;31.03;;;;;;;4.26;92.95;92104.13;5029628;28;20232;-84
2021/12/05 01:18:59;;;;;;;48.50;31.67;;;;;;;4.14;93.49;92092.44;5029951;28;20205;-84
2021/12/05 01:21:25;;;;;;;58.27;32.97;;;;;;;3.56;96.11;92088.25;5029984;28;20226;-83
2021/12/05 01:32:26;;;;;;;51.10;32.20;;;;;;;3.50;96.64;92053.13;5030071;28;20234;-84
2021/12/05 01:34:40;;;;;;;55.93;32.53;;;;;;;3.22;96.99;92066.38;5024425;28;20234;-84
2021/12/05 01:40:02;;;;;;;53.93;30.27;;;;;;;3.44;96.80;92063.69;5028623;28;20290;-84
2021/12/05 02:41:12;;;;;;;45.33;27.73;;;;;;;3.61;94.27;92084.94;5030821;28;20224;-81
2021/12/05 02:44:01;;;;;;;45.20;28.73;;;;;;;3.81;93.82;92090.22;5028655;28;20290;-84
2021/12/05 02:46:27;;;;;;;47.37;27.17;;;;;;;3.77;93.98;92076.22;5028895;28;20239;-84
2021/12/05 02:48:57;;;;;;;49.40;28.20;;;;;;;3.47;94.63;92053.63;5029489;28;20202;-83
2021/12/05 02:51:26;;;;;;;45.87;29.17;;;;;;;3.34;96.88;92077.28;5032190;28;20234;-84
2021/12/05 02:54:05;;;;;;;51.83;30.80;;;;;;;3.61;96.84;92085.69;5033121;28;20214;-82
2021/12/05 02:56:36;;;;;;;54.67;30.00;;;;;;;3.72;95.65;92083.97;5032912;28;20218;-84
2021/12/05 02:59:20;;;;;;;49.07;27.73;;;;;;;3.55;95.84;92065.28;5033002;28;20318;-83
2021/12/05 03:01:51;;;;;;;43.73;28.23;;;;;;;3.65;96.06;92078.25;5033816;28;20329;-83
2021/12/05 03:04:17;;;;;;;43.77;27.90;;;;;;;3.59;95.92;92067.13;5033694;28;20198;-84
2021/12/05 03:06:51;;;;;;;44.33;28.30;;;;;;;3.66;94.94;92072.06;5032666;28;20238;-84
2021/12/05 03:09:16;;;;;;;42.43;26.20;;;;;;;3.53;95.17;92077.66;5033055;28;20183;-84
2021/12/05 03:11:44;;;;;;;44.87;26.83;;;;;;;3.35;95.61;92057.44;5032084;28;20236;-83
2021/12/05 03:14:10;;;;;;;44.37;28.23;;;;;;;3.08;97.40;92076.31;5032315;28;20205;-83
2021/12/05 03:16:38;;;;;;;48.17;29.67;;;;;;;3.23;97.43;92052.44;5032935;28;20241;-84
2021/12/05 03:19:06;;;;;;;51.53;30.60;;;;;;;3.40;96.86;92047.91;5033476;28;20194;-84
2021/12/05 03:21:32;;;;;;;49.00;29.63;;;;;;;3.68;96.85;92070.78;5032330;28;20230;-84
2021/12/05 03:23:58;;;;;;;52.97;33.03;;;;;;;3.40;97.38;92072.91;5033918;28;20207;-84
2021/12/05 03:26:31;;;;;;;53.97;31.40;;;;;;;3.67;97.77;92079.56;5032128;28;20223;-84
2021/12/05 03:28:58;;;;;;;47.80;30.07;;;;;;;3.73;95.04;92021.00;5032074;28;20201;-84
2021/12/05 03:31:26;;;;;;;49.10;32.17;;;;;;;3.88;95.37;92077.84;5032219;28;20231;-83
2021/12/05 03:33:53;;;;;;;50.37;31.00;;;;;;;3.65;95.48;92060.19;5031979;28;20214;-81
2021/12/05 03:36:19;;;;;;;52.63;30.73;;;;;;;3.86;94.99;92075.50;5032288;28;20195;-84
2021/12/05 03:38:46;;;;;;;45.47;29.37;;;;;;;3.99;95.48;92085.41;5032801;28;20167;-84
2021/12/05 03:41:12;;;;;;;48.93;29.43;;;;;;;3.69;94.49;92041.34;5030981;28;20269;-84
2021/12/05 03:43:38;;;;;;;52.00;29.97;;;;;;;4.05;94.28;92073.28;5031733;28;20263;-81
2021/12/05 03:46:05;;;;;;;47.27;30.70;;;;;;;4.06;94.41;92073.03;5031701;28;20282;-83
2021/12/05 03:48:35;;;;;;;45.67;29.43;;;;;;;3.94;94.95;92049.22;5031841;28;20201;-84
2021/12/05 03:51:02;;;;;;;50.83;30.07;;;;;;;4.00;94.76;92047.47;5032945;28;20186;-82
2021/12/05 03:53:27;;;;;;;45.07;29.67;;;;;;;4.17;93.28;92061.69;5031030;28;20224;-83
2021/12/05 03:55:54;;;;;;;45.33;30.37;;;;;;;4.14;93.52;92067.38;5031867;28;20190;-83
2021/12/05 03:58:21;;;;;;;44.23;28.90;;;;;;;4.10;93.38;92076.69;5031151;28;20238;-83
2021/12/05 04:00:51;;;;;;;47.73;28.80;;;;;;;4.10;92.96;92068.94;5030942;28;20203;-83
2021/12/05 04:03:19;;;;;;;46.60;29.67;;;;;;;4.23;93.02;92065.88;5031717;28;20250;-83
2021/12/05 04:05:45;;;;;;;41.23;26.87;;;;;;;4.26;92.37;92077.50;5032410;28;20255;-83
2021/12/05 04:08:14;;;;;;;44.03;28.57;;;;;;;4.12;93.52;92072.03;5031366;28;20226;-83
2021/12/05 04:10:43;;;;;;;47.93;29.70;;;;;;;4.25;93.18;92076.72;5032332;28;20246;-83
2021/12/05 04:13:09;;;;;;;49.70;30.77;;;;;;;4.26;93.84;92072.34;5029911;28;20238;-83
2021/12/05 04:15:35;;;;;;;50.90;30.13;;;;;;;4.00;93.16;92043.03;5063455;28;20203;-83
2021/12/05 04:18:01;;;;;;;48.17;30.93;;;;;;;4.02;93.39;92055.72;5032155;28;20235;-83
2021/12/05 04:20:27;;;;;;;54.70;31.07;;;;;;;3.81;94.05;92043.75;5031100;28;20186;-83
2021/12/05 04:22:54;;;;;;;48.80;29.97;;;;;;;3.85;94.48;92055.91;5032045;28;20294;-81
2021/12/05 04:25:21;;;;;;;47.03;29.37;;;;;;;3.72;95.62;92055.59;5031874;28;21839;-82
2021/12/05 04:27:49;;;;;;;50.57;29.80;;;;;;;3.59;95.71;92082.59;5031148;28;20223;-82
2021/12/05 04:30:18;;;;;;;51.83;29.23;;;;;;;3.70;96.99;92081.66;5030781;28;20204;-83
2021/12/05 04:32:44;;;;;;;54.90;30.50;;;;;;;3.91;95.81;92098.78;5030953;28;20234;-83
2021/12/05 04:35:10;;;;;;;53.80;29.60;;;;;;;3.88;95.07;92101.88;5031602;28;20190;-82
2021/12/05 04:37:35;;;;;;;51.67;31.10;;;;;;;3.82;95.37;92081.44;5031959;28;20233;-83
2021/12/05 04:40:01;;;;;;;47.63;29.37;;;;;;;4.12;94.57;92092.69;5031144;28;20222;-83
2021/12/05 04:42:27;;;;;;;49.83;29.57;;;;;;;3.90;94.66;92073.22;5030646;28;20218;-83
2021/12/05 04:44:52;;;;;;;44.33;29.00;;;;;;;3.97;95.19;92082.28;5032306;28;20183;-83
2021/12/05 04:47:18;;;;;;;46.60;30.87;;;;;;;4.11;94.86;92096.28;5029865;28;20219;-83
2021/12/05 04:49:44;;;;;;;49.97;30.40;;;;;;;4.05;94.59;92081.81;5031692;28;20201;-83
2021/12/05 04:52:11;;;;;;;47.83;30.20;;;;;;;3.93;94.70;92094.16;5032570;28;20226;-83
2021/12/05 04:54:39;;;;;;;52.07;29.47;;;;;;;3.97;95.18;92095.19;5032434;28;20194;-83
2021/12/05 04:57:05;;;;;;;43.47;28.37;;;;;;;3.81;95.22;92090.22;5030157;28;20231;-82
2021/12/05 04:59:35;;;;;;;48.23;29.03;;;;;;;4.05;94.92;92105.06;5031464;28;20201;-83
2021/12/05 05:02:02;;;;;;;43.00;27.40;;;;;;;4.05;94.60;92091.34;5030473;28;20257;-78
2021/12/05 05:04:29;;;;;;;44.03;27.40;;;;;;;4.03;94.50;92094.19;5030905;28;20203;-78
2021/12/05 05:06:59;;;;;;;44.50;28.37;;;;;;;4.29;93.98;92110.59;5030697;28;20218;-77
2021/12/05 05:09:25;;;;;;;47.80;29.87;;;;;;;4.26;93.81;92129.97;5032657;28;20241;-78
2021/12/05 05:11:51;;;;;;;47.80;30.07;;;;;;;4.17;93.77;92121.13;5030354;28;20238;-78
2021/12/05 05:14:17;;;;;;;42.43;28.00;;;;;;;4.06;93.99;92104.00;5029510;28;20727;-77
2021/12/05 05:16:44;;;;;;;45.93;28.40;;;;;;;4.35;93.57;92131.03;5029585;28;20219;-77
2021/12/05 05:19:12;;;;;;;48.20;28.73;;;;;;;4.27;92.97;92123.75;5030178;28;20195;-77
2021/12/05 05:50:19;;;;;;;52.43;34.07;;;;;;;4.15;94.88;92119.81;5027742;28;20194;-82
2021/12/05 05:52:46;;;;;;;54.43;31.53;;;;;;;4.16;95.20;92113.63;5028632;28;20231;-82
2021/12/05 05:55:12;;;;;;;50.70;32.33;;;;;;;4.07;94.88;92113.34;5028399;28;20201;-80
2021/12/05 06:00:17;;;;;;;55.43;33.20;;;;;;;3.97;95.31;92090.03;5029649;28;20206;-82
2021/12/05 06:05:31;;;;;;;61.67;39.27;;;;;;;4.01;94.71;92114.34;5030096;28;20221;-81
2021/12/05 06:07:57;;;;;;;69.93;39.87;;;;;;;4.01;95.26;92111.75;5028275;28;20255;-82
2021/12/05 06:10:28;;;;;;;77.40;40.30;;;;;;;3.98;95.35;92093.41;5028290;28;20275;-82
2021/12/05 06:12:54;;;;;;;79.27;40.87;;;;;;;4.07;94.29;92115.91;5028802;28;20238;-82
2021/12/05 06:15:23;;;;;;;73.47;39.93;;;;;;;4.07;95.16;92115.91;5027630;28;20206;-82
2021/12/05 06:17:49;;;;;;;66.70;39.53;;;;;;;4.28;94.22;92133.06;5027310;28;20253;-82
2021/12/05 06:20:16;;;;;;;66.23;36.67;;;;;;;4.38;93.57;92124.56;5028742;28;20187;-83
2021/12/05 06:22:46;;;;;;;66.43;38.40;;;;;;;4.39;93.30;92134.66;5029108;28;21159;-80
2021/12/05 06:25:19;;;;;;;64.80;38.97;;;;;;;4.45;92.83;92125.88;5027907;28;20221;-79
2021/12/05 06:27:45;;;;;;;67.87;36.70;;;;;;;4.58;92.48;92134.97;5028544;28;20253;-78
2021/12/05 06:30:19;;;;;;;61.63;35.20;;;;;;;4.26;92.59;92116.25;5029584;28;20236;-77
2021/12/05 06:38:37;;;;;;;52.90;32.77;;;;;;;4.17;94.85;92141.03;5029141;28;20225;-78
2021/12/05 06:41:50;;;;;;;35.13;24.17;;;;;;;4.33;94.53;92140.03;5028336;28;20209;-78
2021/12/05 06:46:22;;;;;;;27.67;21.00;;;;;;;4.73;93.99;92172.00;5028737;28;20263;-78
2021/12/05 06:48:48;;;;;;;29.10;22.07;;;;;;;4.49;93.84;92150.22;5028486;28;20579;-77
2021/12/05 06:51:18;;;;;;;23.73;18.70;;;;;;;4.85;93.00;92184.72;5028653;28;20179;-77
2021/12/05 06:53:44;;;;;;;21.63;18.50;;;;;;;4.96;92.04;92158.63;5026590;28;20305;-77
2021/12/05 06:56:10;;;;;;;39.07;28.37;;;;;;;5.15;91.80;92197.75;5028769;28;20202;-77
2021/12/05 06:58:36;;;;;;;50.33;31.23;;;;;;;5.20;90.55;92191.78;5029871;28;20304;-77
2021/12/05 07:01:05;;;;;;;43.43;31.93;;;;;;;5.36;88.65;92188.19;5028360;28;20214;-76
2021/12/05 07:03:31;;;;;;;54.87;33.53;;;;;;;4.90;90.45;92188.06;5059924;28;20222;-77
2021/12/05 07:06:04;;;;;;;52.17;32.50;;;;;;;4.91;90.52;92184.47;5027613;28;20192;-78
2021/12/05 07:08:33;;;;;;;60.53;34.27;;;;;;;5.04;89.88;92190.19;5025993;28;20225;-82
2021/12/05 07:14:26;;;;;;;62.60;36.57;;;;;;;4.92;91.84;92200.75;5026456;28;20245;-78
2021/12/05 07:21:54;;;;;;;84.00;38.23;;;;;;;4.83;91.30;92177.22;5026356;28;20231;-78
2021/12/05 07:42:49;;;;;;;71.37;38.70;;;;;;;4.69;93.33;92198.59;5028422;28;20235;-77
2021/12/05 07:45:21;;;;;;;67.13;38.70;;;;;;;4.86;93.46;92189.63;5030012;28;20183;-77
2021/12/05 07:47:54;;;;;;;73.83;40.60;;;;;;;5.29;91.62;92183.28;5027892;28;20231;-77
2021/12/05 07:50:28;;;;;;;63.93;36.00;;;;;;;5.15;89.94;92171.88;5027123;28;20226;-75
2021/12/05 07:52:59;;;;;;;66.33;37.17;;;;;;;5.58;89.93;92186.13;5031373;28;20241;-79
2021/12/05 07:55:31;;;;;;;72.87;39.33;;;;;;;4.62;91.73;92144.56;5028751;28;20183;-77
2021/12/05 07:58:13;;;;;;;61.77;37.23;;;;;;;4.83;93.44;92169.47;5030183;28;20222;-79
2021/12/05 08:00:55;;;;;;;63.17;35.23;;;;;;;5.08;93.29;92189.44;5029041;28;20190;-80
2021/12/05 08:14:41;;;;;;;50.33;33.63;;;;;;;6.11;86.58;92198.59;5028512;28;20201;-82
2021/12/05 08:17:14;;;;;;;57.83;35.87;;;;;;;5.45;89.25;92184.06;5028316;28;20253;-79
2021/12/05 08:19:39;;;;;;;57.87;35.37;;;;;;;5.17;90.32;92195.66;5029820;28;20197;-83
2021/12/05 08:22:05;;;;;;;64.67;37.00;;;;;;;5.75;89.13;92199.59;5029213;28;20246;-82
2021/12/05 08:24:35;;;;;;;59.87;35.00;;;;;;;5.76;87.92;92203.78;5028806;28;20201;-79
2021/12/05 08:27:03;;;;;;;53.20;35.10;;;;;;;5.83;87.19;92188.75;5028897;28;20238;-79
2021/12/05 08:29:45;;;;;;;58.53;35.47;;;;;;;5.64;87.92;92198.84;5027453;28;20215;-80
2021/12/05 08:33:09;;;;;;;55.80;34.53;;;;;;;5.66;89.16;92201.16;5028077;28;20393;-83
2021/12/05 08:35:20;;;;;;;46.00;31.03;;;;;;;5.75;88.64;92205.56;5029659;28;20229;-77
2021/12/05 08:41:32;;;;;;;46.57;31.70;;;;;;;6.53;83.73;92212.00;5031069;28;20222;-76
2021/12/05 08:43:30;;;;;;;34.13;26.53;;;;;;;6.80;81.83;92202.06;5029321;28;20234;-77
2021/12/05 10:07:00;;;;;;;22.80;17.80;;;;;;;7.53;74.41;92062.75;5027128;28;20318;-75
2021/12/05 10:37:24;;;;;;;17.03;15.17;;;;;;;7.67;75.14;92081.84;5028015;28;20241;-75
2021/12/05 10:40:16;;;;;;;19.00;17.10;;;;;;;7.64;72.81;92066.81;5029237;28;20245;-75
2021/12/05 10:42:44;;;;;;;20.57;16.87;;;;;;;7.65;72.95;92069.13;5026768;28;20234;-74
2021/12/05 10:45:19;;;;;;;18.07;16.37;;;;;;;7.74;73.20;92061.50;5027412;28;20210;-74
2021/12/05 10:47:47;;;;;;;20.17;16.87;;;;;;;7.78;72.65;92057.34;5027547;28;20218;-74
2021/12/05 10:50:34;;;;;;;19.40;16.90;;;;;;;7.58;73.43;92034.91;5026722;28;20187;-74
2021/12/05 10:53:22;;;;;;;19.73;17.87;;;;;;;7.47;74.72;92028.25;5058908;28;20253;-73
2021/12/05 10:56:10;;;;;;;18.53;16.60;;;;;;;7.72;72.92;92046.19;5028905;28;20193;-74
2021/12/05 10:58:43;;;;;;;20.90;17.47;;;;;;;7.59;73.87;92041.66;5028986;28;20222;-74
2021/12/05 11:01:14;;;;;;;21.70;18.30;;;;;;;7.60;73.82;92027.63;5028147;28;20260;-74
2021/12/05 11:03:40;;;;;;;20.07;18.03;;;;;;;7.67;73.86;92029.91;5027631;28;20195;-76
2021/12/05 11:06:32;;;;;;;22.77;18.20;;;;;;;7.57;74.52;92029.97;5027652;28;20187;-73
2021/12/05 11:09:01;;;;;;;24.23;18.33;;;;;;;7.84;73.57;92025.81;5030009;28;20187;-75
2021/12/05 11:11:27;;;;;;;21.30;19.20;;;;;;;7.74;73.34;92025.91;5028742;28;20238;-76
2021/12/05 11:13:54;;;;;;;24.83;19.23;;;;;;;7.79;73.18;92018.09;5033093;28;20207;-76
2021/12/05 11:16:37;;;;;;;21.67;18.27;;;;;;;7.85;72.64;92022.16;5045975;28;20182;-77
2021/12/05 11:19:16;;;;;;;23.17;18.50;;;;;;;7.54;73.28;92009.75;5033248;28;20276;-75
2021/12/05 11:21:47;;;;;;;21.83;19.03;;;;;;;7.72;72.90;91999.44;5031622;28;20318;-76
2021/12/05 11:24:12;;;;;;;22.50;19.67;;;;;;;7.80;72.35;91993.63;5046141;28;20190;-76
2021/12/05 11:26:40;;;;;;;20.07;18.10;;;;;;;7.74;72.13;91999.16;5030861;28;20234;-76
2021/12/05 11:29:07;;;;;;;21.40;19.20;;;;;;;7.48;75.06;91990.84;5031463;28;20206;-72
2021/12/05 11:31:34;;;;;;;22.37;19.97;;;;;;;7.46;75.94;91992.16;5029839;28;20242;-70
2021/12/05 11:33:59;;;;;;;26.30;19.10;;;;;;;7.46;74.25;91974.78;5032161;28;20241;-75
2021/12/05 11:36:33;;;;;;;22.07;19.70;;;;;;;7.54;74.19;91981.19;5031444;28;20226;-83
2021/12/05 11:38:59;;;;;;;23.97;19.67;;;;;;;7.64;74.56;91976.66;5033415;28;20179;-80
2021/12/05 11:41:25;;;;;;;19.90;17.80;;;;;;;7.87;73.16;91978.50;5032064;28;20230;-80
2021/12/05 11:43:53;;;;;;;21.73;19.43;;;;;;;7.97;72.66;91965.38;5033253;28;20270;-80
2021/12/05 11:46:25;;;;;;;22.97;18.33;;;;;;;7.90;71.79;91964.19;5030803;28;20199;-80
2021/12/05 11:49:21;;;;;;;21.27;18.23;;;;;;;8.03;71.65;91966.13;5032818;28;20806;-79
2021/12/05 11:51:53;;;;;;;19.43;17.63;;;;;;;8.01;71.40;91963.00;5029131;28;20249;-79
2021/12/05 11:54:29;;;;;;;22.10;17.57;;;;;;;7.67;72.84;91957.16;5032001;28;20214;-79
2021/12/05 11:56:57;;;;;;;24.70;19.30;;;;;;;7.45;74.08;91930.91;5031648;28;20230;-80
2021/12/05 11:59:37;;;;;;;22.07;19.17;;;;;;;7.64;73.99;91953.28;5031278;28;20197;-79
2021/12/05 12:02:13;;;;;;;24.87;19.53;;;;;;;7.70;75.49;91949.59;5030888;28;20253;-78
2021/12/05 12:04:55;;;;;;;22.47;19.47;;;;;;;7.74;74.95;91950.59;5030091;28;20198;-78
2021/12/05 12:07:27;;;;;;;24.90;18.97;;;;;;;8.17;72.28;91952.13;5030722;28;20233;-79
2021/12/05 12:10:15;;;;;;;22.00;19.70;;;;;;;7.74;74.02;91942.78;5031719;28;20236;-78
2021/12/05 12:12:47;;;;;;;21.37;18.27;;;;;;;7.83;73.06;91946.31;5030141;28;20237;-79
2021/12/05 12:15:15;;;;;;;24.17;19.07;;;;;;;7.69;73.67;91923.88;5031187;28;20183;-78
2021/12/05 12:17:41;;;;;;;21.67;18.93;;;;;;;7.54;74.03;91930.03;5031276;28;20229;-79
2021/12/05 12:20:11;;;;;;;22.67;20.27;;;;;;;7.61;75.20;91934.91;5031674;28;20202;-79
2021/12/05 12:22:37;;;;;;;23.63;19.27;;;;;;;7.53;74.40;91931.06;5029333;28;20261;-78
2021/12/05 12:25:08;;;;;;;24.23;18.47;;;;;;;7.73;74.76;91930.06;5031418;28;20270;-79
2021/12/05 12:27:34;;;;;;;29.80;19.93;;;;;;;7.99;74.03;91932.09;5031192;28;20335;-79
2021/12/05 12:30:01;;;;;;;27.13;19.73;;;;;;;8.04;73.99;91926.06;5031994;28;20199;-78
2021/12/05 12:32:34;;;;;;;24.60;19.53;;;;;;;7.92;73.19;91908.25;5030928;28;20225;-78
2021/12/05 12:35:14;;;;;;;23.10;19.00;;;;;;;7.99;73.08;91924.31;5031301;28;20682;-79
2021/12/05 12:38:08;;;;;;;21.03;17.97;;;;;;;7.91;73.39;91937.91;5029947;28;20225;-78
2021/12/05 12:40:51;;;;;;;22.17;17.53;;;;;;;7.99;72.38;91929.50;5030702;28;20217;-78
2021/12/05 12:43:43;;;;;;;21.63;18.83;;;;;;;8.15;71.73;91937.88;5030843;28;20219;-79
2021/12/05 12:46:55;;;;;;;24.40;18.30;;;;;;;8.12;71.43;91928.78;5062865;28;20230;-79
2021/12/05 12:49:20;;;;;;;31.37;18.60;;;;;;;8.05;72.28;91925.00;4990174;28;20215;-78
2021/12/05 12:52:09;;;;;;;23.63;19.17;;;;;;;7.76;73.11;91917.31;4989734;28;20228;-78
2021/12/05 12:54:45;;;;;;;23.60;19.13;;;;;;;7.89;73.33;91919.22;5017507;28;20210;-77
2021/12/05 12:57:19;;;;;;;20.63;18.47;;;;;;;7.85;73.39;91905.25;5029079;28;20294;-78
2021/12/05 12:59:45;;;;;;;26.63;21.60;;;;;;;8.17;74.49;91912.38;5030932;28;20274;-78
2021/12/05 13:10:28;;;;;;;20.53;17.60;;;;;;;7.66;76.93;91909.63;5031833;28;20226;-79
2021/12/05 13:13:00;;;;;;;20.27;17.27;;;;;;;7.57;76.03;91916.47;5030360;28;20250;-77
2021/12/05 13:15:34;;;;;;;19.83;17.47;;;;;;;7.63;75.86;91912.78;5031075;28;20195;-79
2021/12/05 13:18:01;;;;;;;28.60;20.97;;;;;;;7.43;77.82;91915.59;5030623;28;20226;-78
2021/12/05 13:20:52;;;;;;;23.33;18.70;;;;;;;7.28;77.95;91917.56;5030124;28;20186;-78
2021/12/05 13:23:19;;;;;;;25.63;18.23;;;;;;;7.23;78.19;91909.84;5029620;28;20223;-79
2021/12/05 13:26:23;;;;;;;24.30;17.57;;;;;;;7.15;78.63;91902.66;5030785;28;20194;-79
2021/12/05 13:29:16;;;;;;;21.33;19.07;;;;;;;6.99;79.40;91901.25;5029686;28;20221;-78
2021/12/05 13:31:46;;;;;;;25.43;18.93;;;;;;;7.04;79.12;91904.56;5029012;28;20252;-79
2021/12/05 13:34:26;;;;;;;20.33;18.10;;;;;;;7.03;78.60;91905.63;5029739;28;20229;-79
2021/12/05 13:37:06;;;;;;;20.47;17.10;;;;;;;6.96;79.35;91905.16;5029768;28;20234;-79
2021/12/05 13:39:39;;;;;;;18.33;16.10;;;;;;;6.92;79.27;91898.19;5030451;28;20214;-80
2021/12/05 13:42:13;;;;;;;19.23;16.43;;;;;;;6.81;79.55;91887.13;5029813;28;20242;-79
2021/12/05 13:45:06;;;;;;;18.67;15.97;;;;;;;6.71;80.67;91896.84;5030475;28;20257;-79
2021/12/05 13:47:53;;;;;;;17.03;15.23;;;;;;;6.61;80.75;91905.47;5029466;28;20218;-79
2021/12/05 13:50:18;;;;;;;18.43;16.53;;;;;;;6.54;80.57;91920.53;5029870;28;20206;-79
2021/12/05 13:53:02;;;;;;;19.03;17.23;;;;;;;6.44;81.28;91918.03;5030802;28;20298;-79
2021/12/05 13:55:41;;;;;;;19.27;17.33;;;;;;;6.42;81.72;91907.16;5029387;28;20193;-79
2021/12/05 13:58:25;;;;;;;20.77;18.53;;;;;;;6.15;83.50;91914.56;5028795;28;20226;-78
2021/12/05 14:01:22;;;;;;;21.03;17.27;;;;;;;6.38;82.28;91908.75;5031122;28;20191;-77
2021/12/05 14:04:19;;;;;;;18.77;16.87;;;;;;;6.28;81.91;91903.63;5029972;28;20215;-78
2021/12/05 14:06:57;;;;;;;18.90;16.90;;;;;;;6.18;82.79;91909.63;5029575;28;20230;-77
2021/12/05 14:09:29;;;;;;;22.87;18.63;;;;;;;6.25;83.04;91899.75;5029020;28;20302;-78
2021/12/05 14:11:57;;;;;;;23.40;19.07;;;;;;;6.36;82.15;91900.47;5029945;28;20262;-79
2021/12/05 14:14:27;;;;;;;24.83;19.77;;;;;;;6.19;83.34;91900.06;5029312;28;20269;-79
2021/12/05 14:16:55;;;;;;;25.67;20.90;;;;;;;6.10;83.64;91892.06;5029473;28;20226;-78
2021/12/05 14:19:24;;;;;;;25.93;20.13;;;;;;;6.08;83.89;91896.75;5028575;28;20203;-79
2021/12/05 14:21:52;;;;;;;23.20;17.77;;;;;;;5.89;84.43;91887.28;5029198;28;20325;-79
2021/12/05 14:24:21;;;;;;;22.57;16.90;;;;;;;5.90;84.73;91889.59;5029348;28;20202;-79
2021/12/05 14:26:49;;;;;;;23.07;19.50;;;;;;;5.90;84.51;91894.78;5029524;28;20230;-78
2021/12/05 14:29:25;;;;;;;20.57;17.97;;;;;;;5.87;84.76;91895.31;5028754;28;20191;-78
2021/12/05 14:32:06;;;;;;;27.07;17.87;;;;;;;5.88;84.42;91898.69;5028226;28;20278;-79
2021/12/05 14:34:33;;;;;;;26.63;20.23;;;;;;;5.56;85.37;91867.19;5031146;28;20197;-78
2021/12/05 14:37:03;;;;;;;26.10;19.57;;;;;;;5.81;85.22;91890.38;5028568;28;20232;-79
2021/12/05 14:39:37;;;;;;;21.13;18.93;;;;;;;5.61;85.82;91877.53;5030119;28;20202;-78
2021/12/05 14:42:07;;;;;;;20.30;17.67;;;;;;;5.53;86.53;91881.47;5029491;28;20249;-79
2021/12/05 14:44:33;;;;;;;20.37;18.27;;;;;;;5.57;87.53;91886.88;5028582;28;20187;-79
2021/12/05 14:47:08;;;;;;;20.37;18.23;;;;;;;5.46;86.67;91868.03;5030259;28;20241;-73
2021/12/05 14:49:39;;;;;;;21.60;16.20;;;;;;;5.46;87.05;91888.75;5032987;28;20305;-74
2021/12/05 14:52:09;;;;;;;20.63;17.03;;;;;;;5.29;86.83;91862.41;5063324;28;20269;-74
2021/12/05 14:54:37;;;;;;;21.33;16.23;;;;;;;5.57;86.07;91887.63;5030378;28;20241;-76
2021/12/05 14:57:23;;;;;;;18.50;16.53;;;;;;;5.47;85.85;91886.91;5030909;28;20245;-75
2021/12/05 14:59:52;;;;;;;19.43;16.40;;;;;;;5.50;85.94;91901.91;5033149;28;20201;-76
2021/12/05 15:02:19;;;;;;;18.17;16.60;;;;;;;5.39;86.71;91905.56;5030949;28;20231;-76
2021/12/05 15:04:51;;;;;;;19.30;17.23;;;;;;;5.27;86.14;91885.19;5030600;28;20227;-76
2021/12/05 15:07:23;;;;;;;18.13;16.40;;;;;;;5.40;85.53;91907.16;5031317;28;20257;-76
2021/12/05 15:09:52;;;;;;;19.57;17.07;;;;;;;5.53;85.74;91903.97;5030099;28;20703;-76
2021/12/05 15:12:37;;;;;;;18.60;17.00;;;;;;;5.38;85.38;91893.69;5030658;28;20227;-77
2021/12/05 15:15:13;;;;;;;18.37;16.67;;;;;;;5.23;86.38;91885.97;5029977;28;20202;-77
2021/12/05 15:17:41;;;;;;;18.73;16.93;;;;;;;5.19;87.08;91880.56;5029674;28;20230;-78
2021/12/05 15:20:15;;;;;;;17.30;15.50;;;;;;;5.13;87.26;91901.50;5032111;28;20266;-77
2021/12/05 15:22:43;;;;;;;19.37;17.07;;;;;;;4.99;87.68;91885.78;5028968;28;20230;-77
2021/12/05 15:25:12;;;;;;;19.53;16.37;;;;;;;5.11;87.70;91913.94;5030642;28;20199;-77
2021/12/05 15:27:39;;;;;;;24.53;19.80;;;;;;;4.95;87.62;91895.88;5029868;28;20222;-77
2021/12/05 15:30:09;;;;;;;19.40;17.30;;;;;;;4.94;86.97;91883.19;5031319;28;20199;-77
2021/12/05 15:32:34;;;;;;;21.23;17.20;;;;;;;5.01;87.33;91888.09;5030296;28;20314;-76
2021/12/05 15:35:08;;;;;;;23.83;20.10;;;;;;;4.89;88.26;91899.50;5028569;28;20194;-76
2021/12/05 15:37:34;;;;;;;23.47;20.30;;;;;;;4.89;88.19;91899.50;5031759;28;20211;-76
2021/12/05 15:40:01;;;;;;;31.17;25.23;;;;;;;4.91;88.36;91912.16;5030591;28;20263;-76
2021/12/05 15:42:31;;;;;;;26.30;22.07;;;;;;;4.79;89.33;91896.16;5031549;28;20219;-76
2021/12/05 15:44:59;;;;;;;24.27;21.23;;;;;;;4.84;89.16;91909.84;5032305;28;20183;-76
2021/12/05 15:47:31;;;;;;;54.90;32.33;;;;;;;4.78;89.02;91916.06;5029584;28;20313;-76
2021/12/05 15:50:00;;;;;;;44.43;29.63;;;;;;;4.79;90.13;91903.91;5031857;28;20167;-76
2021/12/05 15:52:31;;;;;;;24.60;21.53;;;;;;;4.80;89.39;91903.66;5029368;28;20234;-76
2021/12/05 15:54:57;;;;;;;21.53;19.37;;;;;;;4.79;88.52;91930.53;5030896;28;20194;-77
2021/12/05 15:57:33;;;;;;;22.77;20.43;;;;;;;4.68;89.77;91931.59;5030205;28;20222;-76
2021/12/05 16:00:05;;;;;;;26.73;20.03;;;;;;;4.48;90.25;91936.72;5030195;28;20187;-75
2021/12/05 16:02:30;;;;;;;32.97;26.13;;;;;;;4.47;91.16;91940.34;5030076;28;20233;-75
2021/12/05 16:04:56;;;;;;;36.80;26.23;;;;;;;4.63;91.61;91944.50;5030984;28;20250;-79
2021/12/05 16:07:26;;;;;;;31.70;24.60;;;;;;;4.70;90.50;91954.59;5030485;28;20227;-69
2021/12/05 16:10:06;;;;;;;32.43;24.27;;;;;;;4.62;91.63;91955.84;5031799;28;20183;-68
2021/12/05 16:12:38;;;;;;;33.77;26.00;;;;;;;4.58;91.59;91952.25;5030410;28;20228;-72
2021/12/05 16:15:04;;;;;;;27.23;23.23;;;;;;;4.50;91.32;91936.47;5030707;28;20199;-71
2021/12/05 16:17:30;;;;;;;30.73;24.80;;;;;;;4.50;91.50;91939.84;5029811;28;20552;-71
2021/12/05 16:20:16;;;;;;;30.90;22.20;;;;;;;4.47;91.38;91944.75;5030169;28;20190;-72
2021/12/05 16:23:00;;;;;;;83.23;47.90;;;;;;;4.35;91.98;91955.34;5030666;28;20305;-72
2021/12/05 16:25:26;;;;;;;45.77;30.83;;;;;;;4.50;91.29;91955.34;5030310;28;20187;-72
2021/12/05 16:27:55;;;;;;;24.07;18.43;;;;;;;4.48;91.13;91962.56;5030849;28;20269;-72
2021/12/05 16:30:39;;;;;;;23.23;20.33;;;;;;;4.44;91.08;91950.44;5031133;28;20222;-73
2021/12/05 16:33:06;;;;;;;21.97;18.87;;;;;;;4.44;91.36;91940.09;5031164;28;20235;-74
2021/12/05 16:35:41;;;;;;;21.47;19.10;;;;;;;4.44;91.36;91934.91;5031113;28;20179;-74
2021/12/05 16:38:21;;;;;;;20.13;18.03;;;;;;;4.52;91.35;91949.91;5028142;28;20276;-71
2021/12/05 16:41:17;;;;;;;24.30;17.93;;;;;;;4.15;91.48;91906.22;5029269;28;20256;-68
2021/12/05 16:43:58;;;;;;;24.43;18.80;;;;;;;4.41;91.36;91948.34;5029229;28;20290;-71
2021/12/05 16:46:36;;;;;;;21.57;18.23;;;;;;;4.39;91.17;91935.69;5030241;28;20249;-71
2021/12/05 16:49:05;;;;;;;21.00;18.90;;;;;;;4.47;91.47;91944.75;5030298;28;20195;-78
2021/12/05 16:51:35;;;;;;;21.13;18.97;;;;;;;4.48;91.48;91912.72;5031039;28;20319;-69
2021/12/05 16:54:13;;;;;;;21.40;19.17;;;;;;;4.64;90.64;91924.59;5028843;28;20253;-72
2021/12/05 16:56:48;;;;;;;23.87;21.47;;;;;;;4.85;90.44;91952.78;5029228;28;20245;-79
2021/12/05 16:59:20;;;;;;;50.57;27.87;;;;;;;4.79;89.05;91953.78;5029979;28;20190;-78
2021/12/05 17:01:47;;;;;;;50.87;35.43;;;;;;;4.57;90.38;91961.06;5029708;28;20249;-77
2021/12/05 17:04:13;;;;;;;73.77;43.50;;;;;;;4.66;90.40;91943.19;5030084;28;20221;-79